Main page
Satellite images 15-day forecastsClimateMarine weather Cyclones Lightning AirportsFAQ Newsletter About
Weather : Europe Africa North America South America Asia Australia-Oceania Others
Languages Contact

Tunis, Tunisia

Carthage

latitude: 36-50N, longitude: 010-14E, elevation: 3 m


METAR: DTTA 020130Z 27009KT 240V300 9999 SCT030 23/15 Q1010 NOSIG
short-TAF: out of date (650 hours)
long-TAF: DTTA 011700Z 0118/0218 30017G35KT 9999 SCT030 BECMG 0201/0203 34019KT

Time: 02:48 (01:48 UTC)

Current weather observation

The report was made 18 minutes ago, at 01:30 UTC  
Wind 09 kt from the West, varying between West/Southwest and West/Northwest
Temperature 23°C
Humidity 61%
Pressure 1010 hPa
Visibility 10 km or more
Scattered clouds at a height of 3000 ft

Change units

Forecast

The report was made 8 hours and 24 minutes ago, at 17:24 UTC  
Forecast valid from 01 at 18 UTC to 02 at 18 UTC
Wind 17 kt from the West/Northwest with gusts up to 35 kt
Visibility 10 km or more
Scattered clouds at a height of 3000 ft
Becoming
from 02 at 01 UTC to 02 at 03 UTC
Wind 19 kt from the North/Northwest
The information on this site is subject to a disclaimer
Weather : Europe Africa North America South America Asia Australia-Oceania Others
Satellite images 15-day forecastsClimateMarine weather Cyclones Lightning AirportsFAQ Languages Contact Newsletter About